Terminal Aerodrome Forecast
Issued by NWS Wilmington, OH

Current Version | Previous Version | Graphics & Text | Print | Product List | Glossary On
Versions: 1 2 3 4 5 6 7 8 9 10 11 12 13 14 15 16 17 18 19 20 21 22 23 24 25 26 27 28 29 30
211
FTUS41 KILN 231720
TAFDAY
TAF
KDAY 231720Z 2318/2418 21012G20KT P6SM VCSH OVC006
      TEMPO 2318/2319 5SM BR
     FM232100 26010KT P6SM OVC015
     FM240300 33005KT 5SM BR OVC008
     FM240600 02005KT 5SM BR VCSH OVC005
     FM241100 07006KT 5SM -SHRA OVC008
     FM241600 09008KT P6SM -SHRA OVC012=

USA.gov is the U.S. government's official web portal to all federal, state and local government web resources and services.